createdAt,value
2023-04-05T00:00:03.563Z,985.79
2023-04-05T00:01:03.775Z,985.70
2023-04-05T00:02:03.791Z,985.90
2023-04-05T00:03:04.200Z,985.81
2023-04-05T00:04:04.271Z,985.92
2023-04-05T00:05:03.619Z,985.81
2023-04-05T00:06:03.598Z,985.81
2023-04-05T00:07:03.657Z,985.82
2023-04-05T00:08:03.581Z,985.73
2023-04-05T00:09:03.532Z,985.82
2023-04-05T00:10:03.620Z,985.65
2023-04-05T00:11:03.597Z,985.76
2023-04-05T00:12:03.639Z,985.76
2023-04-05T00:13:03.738Z,985.60
2023-04-05T00:14:03.750Z,985.62
2023-04-05T00:15:03.807Z,985.65
2023-04-05T00:16:03.889Z,985.57
2023-04-05T00:17:03.888Z,985.52
2023-04-05T00:18:04.046Z,985.65
2023-04-05T00:19:03.627Z,985.60
2023-04-05T00:20:03.570Z,985.57
2023-04-05T00:21:03.606Z,985.66
2023-04-05T00:22:03.652Z,985.49
2023-04-05T00:23:03.617Z,985.66
2023-04-05T00:24:03.616Z,985.66
2023-04-05T00:25:03.635Z,985.60
2023-04-05T00:26:03.617Z,985.52
2023-04-05T00:27:03.647Z,985.58
2023-04-05T00:28:03.677Z,985.63
2023-04-05T00:29:03.747Z,985.77
2023-04-05T00:30:03.843Z,985.60
2023-04-05T00:31:03.944Z,985.57
2023-04-05T00:32:03.911Z,985.63
2023-04-05T00:33:03.739Z,985.46
2023-04-05T00:34:03.668Z,985.60
2023-04-05T00:35:03.624Z,985.49
2023-04-05T00:36:03.689Z,985.57
2023-04-05T00:37:03.639Z,985.63
2023-04-05T00:38:03.597Z,985.52
2023-04-05T00:39:03.649Z,985.52
2023-04-05T00:40:03.716Z,985.30
2023-04-05T00:41:03.627Z,985.57
2023-04-05T00:42:03.801Z,985.38
2023-04-05T00:43:03.889Z,985.46
2023-04-05T00:44:03.940Z,985.44
2023-04-05T00:45:03.896Z,985.31
2023-04-05T00:46:03.725Z,985.38
2023-04-05T00:47:03.624Z,985.38
2023-04-05T00:48:03.670Z,985.41
2023-04-05T00:49:03.697Z,985.31
2023-04-05T00:50:03.629Z,985.47
2023-04-05T00:51:03.634Z,985.41
2023-04-05T00:52:03.627Z,985.41
2023-04-05T00:53:03.582Z,985.28
2023-04-05T00:54:03.642Z,985.36
2023-04-05T00:55:03.678Z,985.41
2023-04-05T00:56:03.612Z,985.36
2023-04-05T00:57:03.642Z,985.36
2023-04-05T00:58:03.684Z,985.23
2023-04-05T00:59:03.752Z,985.25
2023-04-05T01:00:03.793Z,985.25
2023-04-05T01:01:03.884Z,985.25
2023-04-05T01:02:03.643Z,985.23
2023-04-05T01:03:03.778Z,985.39
2023-04-05T01:04:04.198Z,985.15
2023-04-05T01:05:03.671Z,985.17
2023-04-05T01:06:03.633Z,985.23
2023-04-05T01:07:04.943Z,985.31
2023-04-05T01:08:03.624Z,985.23
2023-04-05T01:09:03.623Z,985.17
2023-04-05T01:10:03.667Z,985.26
2023-04-05T01:11:03.637Z,985.31
2023-04-05T01:12:03.622Z,985.31
2023-04-05T01:13:03.928Z,985.23
2023-04-05T01:14:03.918Z,985.23
2023-04-05T01:15:03.882Z,985.29
2023-04-05T01:16:03.838Z,985.23
2023-04-05T01:17:03.655Z,985.23
2023-04-05T01:18:03.681Z,985.09
2023-04-05T01:19:03.687Z,985.12
2023-04-05T01:20:03.640Z,985.20
2023-04-05T01:21:03.617Z,985.20
2023-04-05T01:22:03.674Z,985.12
2023-04-05T01:23:03.614Z,985.18
2023-04-05T01:24:03.629Z,985.07
2023-04-05T01:25:03.695Z,985.12
2023-04-05T01:26:03.616Z,985.37
2023-04-05T01:27:03.640Z,985.12
2023-04-05T01:28:03.743Z,985.37
2023-04-05T01:29:03.929Z,985.10
2023-04-05T01:30:03.662Z,985.24
2023-04-05T01:31:03.731Z,985.15
2023-04-05T01:32:03.646Z,985.13
2023-04-05T01:33:03.726Z,985.07
2023-04-05T01:34:03.710Z,984.99
2023-04-05T01:35:03.644Z,985.02
2023-04-05T01:36:03.751Z,985.02
2023-04-05T01:38:03.748Z,985.07
2023-04-05T01:39:03.766Z,984.85
2023-04-05T01:40:03.672Z,985.07
2023-04-05T01:41:03.691Z,985.04
2023-04-05T01:42:03.684Z,984.85
2023-04-05T01:43:03.650Z,984.91
2023-04-05T01:44:03.701Z,984.85
2023-04-05T01:45:03.733Z,985.02
2023-04-05T01:46:03.754Z,984.99
2023-04-05T01:47:03.925Z,984.96
2023-04-05T01:48:03.760Z,985.04
2023-04-05T01:49:03.690Z,985.02
2023-04-05T01:50:03.742Z,984.96
2023-04-05T01:51:03.699Z,984.94
2023-04-05T01:52:03.676Z,984.96
2023-04-05T01:53:03.712Z,984.99
2023-04-05T01:54:03.682Z,984.96
2023-04-05T01:55:03.690Z,984.85
2023-04-05T01:56:03.764Z,984.85
2023-04-05T01:57:03.668Z,984.85
2023-04-05T01:58:03.807Z,984.94
2023-04-05T01:59:04.015Z,984.97
2023-04-05T02:00:04.013Z,984.88
2023-04-05T02:01:03.995Z,984.97
2023-04-05T02:02:04.145Z,984.88
2023-04-05T02:03:03.954Z,984.91
2023-04-05T02:04:03.717Z,985.08
2023-04-05T02:05:03.731Z,985.02
2023-04-05T02:06:03.735Z,984.89
2023-04-05T02:07:03.693Z,984.91
2023-04-05T02:08:03.730Z,984.94
2023-04-05T02:09:03.713Z,984.89
2023-04-05T02:10:03.710Z,984.94
2023-04-05T02:11:03.768Z,984.92
2023-04-05T02:12:03.708Z,984.81
2023-04-05T02:13:03.713Z,984.86
2023-04-05T02:14:03.743Z,984.84
2023-04-05T02:15:03.688Z,984.95
2023-04-05T02:16:03.723Z,984.95
2023-04-05T02:17:03.736Z,985.06
2023-04-05T02:18:03.827Z,984.78
2023-04-05T02:19:03.997Z,984.84
2023-04-05T02:20:03.960Z,984.86
2023-04-05T02:21:03.719Z,984.92
2023-04-05T02:22:03.752Z,984.97
2023-04-05T02:23:03.794Z,984.92
2023-04-05T02:24:03.714Z,985.03
2023-04-05T02:25:03.716Z,984.89
2023-04-05T02:26:03.794Z,984.92
2023-04-05T02:27:03.732Z,985.03
2023-04-05T02:28:03.757Z,984.92
2023-04-05T02:29:03.832Z,984.81
2023-04-05T02:30:03.734Z,984.87
2023-04-05T02:31:03.740Z,984.87
2023-04-05T02:32:04.082Z,984.92
2023-04-05T02:33:03.916Z,984.77
2023-04-05T02:34:03.878Z,984.90
2023-04-05T02:35:03.953Z,984.87
2023-04-05T02:36:03.743Z,984.84
2023-04-05T02:37:03.737Z,984.81
2023-04-05T02:38:03.765Z,984.87
2023-04-05T02:39:03.734Z,984.79
2023-04-05T02:40:03.758Z,984.81
2023-04-05T02:41:03.804Z,984.84
2023-04-05T02:42:03.738Z,984.81
2023-04-05T02:43:03.708Z,984.77
2023-04-05T02:44:03.788Z,984.90
2023-04-05T02:45:03.731Z,984.74
2023-04-05T02:46:03.847Z,984.87
2023-04-05T02:47:03.794Z,984.81
2023-04-05T02:48:03.815Z,984.84
2023-04-05T02:49:03.856Z,984.58
2023-04-05T02:50:03.959Z,984.74
2023-04-05T02:51:03.782Z,984.77
2023-04-05T02:52:03.861Z,984.87
2023-04-05T02:53:03.970Z,984.72
2023-04-05T02:54:03.954Z,984.79
2023-04-05T02:55:03.965Z,984.74
2023-04-05T02:56:04.023Z,984.72
2023-04-05T02:57:03.961Z,984.60
2023-04-05T02:58:03.873Z,984.58
2023-04-05T02:59:09.006Z,984.66
2023-04-05T03:00:03.890Z,984.58
2023-04-05T03:01:03.948Z,984.58
2023-04-05T03:02:03.818Z,984.58
2023-04-05T03:03:03.954Z,984.61
2023-04-05T03:04:03.994Z,984.63
2023-04-05T03:05:03.799Z,984.58
2023-04-05T03:06:03.723Z,984.58
2023-04-05T03:07:03.748Z,984.61
2023-04-05T03:08:03.797Z,984.58
2023-04-05T03:09:03.724Z,984.58
2023-04-05T03:10:03.833Z,984.52
2023-04-05T03:11:03.802Z,984.50
2023-04-05T03:12:03.765Z,984.55
2023-04-05T03:13:03.787Z,984.75
2023-04-05T03:14:03.792Z,984.58
2023-04-05T03:15:03.729Z,984.58
2023-04-05T03:16:03.809Z,984.64
2023-04-05T03:17:03.972Z,984.55
2023-04-05T03:18:03.900Z,984.64
2023-04-05T03:19:03.774Z,984.66
2023-04-05T03:20:03.789Z,984.55
2023-04-05T03:21:03.953Z,984.61
2023-04-05T03:22:03.945Z,984.44
2023-04-05T03:23:03.882Z,984.72
2023-04-05T03:24:03.920Z,984.69
2023-04-05T03:25:03.943Z,984.61
2023-04-05T03:26:03.798Z,984.55
2023-04-05T03:27:03.797Z,984.44
2023-04-05T03:28:03.807Z,984.50
2023-04-05T03:29:03.854Z,984.61
2023-04-05T03:30:03.864Z,984.58
2023-04-05T03:31:03.887Z,984.64
2023-04-05T03:32:03.829Z,984.64
2023-04-05T03:33:03.876Z,984.58
2023-04-05T03:34:03.789Z,984.53
2023-04-05T03:35:03.860Z,984.58
2023-04-05T03:36:04.002Z,984.47
2023-04-05T03:37:03.766Z,984.53
2023-04-05T03:38:03.793Z,984.61
2023-04-05T03:39:03.777Z,984.48
2023-04-05T03:40:03.797Z,984.53
2023-04-05T03:41:03.807Z,984.67
2023-04-05T03:42:03.814Z,984.59
2023-04-05T03:43:03.769Z,984.48
2023-04-05T03:44:03.831Z,984.48
2023-04-05T03:45:03.803Z,984.59
2023-04-05T03:46:03.831Z,984.39
2023-04-05T03:47:03.836Z,984.50
2023-04-05T03:48:03.906Z,984.64
2023-04-05T03:49:03.756Z,984.61
2023-04-05T03:50:03.826Z,984.56
2023-04-05T03:51:03.789Z,984.67
2023-04-05T03:52:03.772Z,984.61
2023-04-05T03:53:03.819Z,984.61
2023-04-05T03:54:03.750Z,984.70
2023-04-05T03:55:03.786Z,984.70
2023-04-05T03:56:03.874Z,984.73
2023-04-05T03:57:03.801Z,984.67
2023-04-05T03:58:03.830Z,984.73
2023-04-05T03:59:04.096Z,984.62
2023-04-05T04:00:03.803Z,984.62
2023-04-05T04:01:03.776Z,984.77
2023-04-05T04:02:03.934Z,984.59
2023-04-05T04:03:03.962Z,984.56
2023-04-05T04:04:03.844Z,984.70
2023-04-05T04:05:04.042Z,984.73
2023-04-05T04:06:03.863Z,984.53
2023-04-05T04:07:03.811Z,984.70
2023-04-05T04:08:03.832Z,984.83
2023-04-05T04:09:03.824Z,984.73
2023-04-05T04:10:03.828Z,984.59
2023-04-05T04:11:03.845Z,984.73
2023-04-05T04:12:03.810Z,984.70
2023-04-05T04:13:03.837Z,984.54
2023-04-05T04:14:03.831Z,984.67
2023-04-05T04:15:03.840Z,984.59
2023-04-05T04:16:03.914Z,984.62
2023-04-05T04:17:03.859Z,984.56
2023-04-05T04:18:03.959Z,984.62
2023-04-05T04:19:03.796Z,984.59
2023-04-05T04:20:03.886Z,984.62
2023-04-05T04:21:03.844Z,984.65
2023-04-05T04:22:03.865Z,984.67
2023-04-05T04:23:03.852Z,984.62
2023-04-05T04:24:03.825Z,984.62
2023-04-05T04:25:03.856Z,984.73
2023-04-05T04:26:03.839Z,984.70
2023-04-05T04:27:03.851Z,984.86
2023-04-05T04:28:03.794Z,984.73
2023-04-05T04:30:03.844Z,984.65
2023-04-05T04:31:03.875Z,984.62
2023-04-05T04:32:03.971Z,984.68
2023-04-05T04:33:05.437Z,984.59
2023-04-05T04:34:04.005Z,984.54
2023-04-05T04:35:03.963Z,984.68
2023-04-05T04:36:03.947Z,984.68
2023-04-05T04:37:03.997Z,984.68
2023-04-05T04:38:03.890Z,984.73
2023-04-05T04:39:03.899Z,984.54
2023-04-05T04:40:03.902Z,984.62
2023-04-05T04:42:04.049Z,984.60
2023-04-05T04:43:13.839Z,984.62
2023-04-05T04:44:04.202Z,984.71
2023-04-05T04:46:03.915Z,984.62
2023-04-05T04:47:03.885Z,984.57
2023-04-05T04:48:03.970Z,984.51
2023-04-05T04:50:03.920Z,984.73
2023-04-05T04:51:03.909Z,984.46
2023-04-05T04:52:03.861Z,984.54
2023-04-05T04:53:03.951Z,984.54
2023-04-05T04:54:03.913Z,984.57
2023-04-05T04:56:03.905Z,984.65
2023-04-05T04:57:03.889Z,984.70
2023-04-05T04:58:03.908Z,984.59
2023-04-05T04:59:03.962Z,984.73
2023-04-05T05:00:03.892Z,984.76
2023-04-05T05:01:03.942Z,984.62
2023-04-05T05:02:03.954Z,984.68
2023-04-05T05:03:03.936Z,984.65
2023-04-05T05:04:03.935Z,984.83
2023-04-05T05:05:03.991Z,984.65
2023-04-05T05:08:03.914Z,984.59
2023-04-05T05:09:03.895Z,984.80
2023-04-05T05:10:03.881Z,984.62
2023-04-05T05:11:03.911Z,984.70
2023-04-05T05:12:03.888Z,984.88
2023-04-05T05:13:03.881Z,984.77
2023-04-05T05:14:11.176Z,984.62
2023-04-05T05:15:03.837Z,984.70
2023-04-05T05:16:03.852Z,984.59
2023-04-05T05:17:04.012Z,984.83
2023-04-05T05:18:03.983Z,984.75
2023-04-05T05:19:03.877Z,984.70
2023-04-05T05:20:03.919Z,984.61
2023-04-05T05:21:03.880Z,984.67
2023-04-05T05:22:04.035Z,984.61
2023-04-05T05:23:03.905Z,984.58
2023-04-05T05:24:03.917Z,984.61
2023-04-05T05:25:03.883Z,984.69
2023-04-05T05:27:03.930Z,984.61
2023-04-05T05:28:03.865Z,984.47
2023-04-05T05:29:03.896Z,984.55
2023-04-05T05:30:03.952Z,984.52
2023-04-05T05:31:04.005Z,984.55
2023-04-05T05:32:03.919Z,984.43
2023-04-05T05:33:03.960Z,984.68
2023-04-05T05:34:03.897Z,984.51
2023-04-05T05:35:03.893Z,984.42
2023-04-05T05:36:04.017Z,984.36
2023-04-05T05:37:03.919Z,984.38
2023-04-05T05:38:04.022Z,984.26
2023-04-05T05:39:03.945Z,984.25
2023-04-05T05:40:03.980Z,984.33
2023-04-05T05:41:03.934Z,984.29
2023-04-05T05:42:04.002Z,984.37
2023-04-05T05:43:03.924Z,984.28
2023-04-05T05:44:03.885Z,984.25
2023-04-05T05:45:03.931Z,984.24
2023-04-05T05:46:04.003Z,984.23
2023-04-05T05:47:03.916Z,984.20
2023-04-05T05:48:04.020Z,984.19
2023-04-05T05:49:03.939Z,984.27
2023-04-05T05:50:03.961Z,984.21
2023-04-05T05:51:03.952Z,984.26
2023-04-05T05:52:03.915Z,984.23
2023-04-05T05:53:03.918Z,984.19
2023-04-05T05:54:03.922Z,984.24
2023-04-05T05:55:03.891Z,984.18
2023-04-05T05:56:03.878Z,984.34
2023-04-05T05:57:03.950Z,984.26
2023-04-05T05:58:04.156Z,984.36
2023-04-05T05:59:03.960Z,984.50
2023-04-05T06:00:04.180Z,984.44
2023-04-05T06:01:03.975Z,984.30
2023-04-05T06:02:04.084Z,984.37
2023-04-05T06:03:04.026Z,984.54
2023-04-05T06:04:04.017Z,984.39
2023-04-05T06:05:03.932Z,984.47
2023-04-05T06:06:03.974Z,984.58
2023-04-05T06:07:03.952Z,984.49
2023-04-05T06:08:03.926Z,984.63
2023-04-05T06:09:03.967Z,984.65
2023-04-05T06:10:03.939Z,984.68
2023-04-05T06:11:03.945Z,984.73
2023-04-05T06:12:03.970Z,984.67
2023-04-05T06:13:03.930Z,984.67
2023-04-05T06:14:03.942Z,984.72
2023-04-05T06:15:03.969Z,984.85
2023-04-05T06:16:04.005Z,984.99
2023-04-05T06:17:03.936Z,985.07
2023-04-05T06:18:04.119Z,984.98
2023-04-05T06:19:03.943Z,985.06
2023-04-05T06:20:03.978Z,984.98
2023-04-05T06:21:03.971Z,985.17
2023-04-05T06:22:03.976Z,985.11
2023-04-05T06:23:03.980Z,985.05
2023-04-05T06:24:03.998Z,985.13
2023-04-05T06:25:03.965Z,985.10
2023-04-05T06:26:03.977Z,985.19
2023-04-05T06:27:03.999Z,985.21
2023-04-05T06:28:03.964Z,985.26
2023-04-05T06:29:03.966Z,985.34
2023-04-05T06:30:04.011Z,985.34
2023-04-05T06:31:03.947Z,985.31
2023-04-05T06:32:04.102Z,985.31
2023-04-05T06:33:04.126Z,985.36
2023-04-05T06:34:03.982Z,985.38
2023-04-05T06:35:03.967Z,985.49
2023-04-05T06:36:04.131Z,985.46
2023-04-05T06:37:03.946Z,985.43
2023-04-05T06:38:03.945Z,985.52
2023-04-05T06:39:03.986Z,985.54
2023-04-05T06:40:04.217Z,985.57
2023-04-05T06:41:03.942Z,985.57
2023-04-05T06:42:03.996Z,985.60
2023-04-05T06:43:04.051Z,985.82
2023-04-05T06:44:03.964Z,985.71
2023-04-05T06:45:04.024Z,985.91
2023-04-05T06:46:04.075Z,985.79
2023-04-05T06:47:03.978Z,985.93
2023-04-05T06:48:04.068Z,985.88
2023-04-05T06:49:04.585Z,985.96
2023-04-05T06:50:04.075Z,985.90
2023-04-05T06:51:04.019Z,986.04
2023-04-05T06:52:03.986Z,985.84
2023-04-05T06:53:03.981Z,985.79
2023-04-05T06:54:03.995Z,986.01
2023-04-05T06:55:04.030Z,985.95
2023-04-05T06:56:03.964Z,986.01
2023-04-05T06:57:04.004Z,986.18
2023-04-05T06:58:03.938Z,986.12
2023-04-05T06:59:04.081Z,986.15
2023-04-05T07:00:03.999Z,986.00
2023-04-05T07:01:04.060Z,986.03
2023-04-05T07:02:03.971Z,986.23
2023-04-05T07:03:04.138Z,986.20
2023-04-05T07:04:04.081Z,986.11
2023-04-05T07:05:03.959Z,986.28
2023-04-05T07:06:03.992Z,986.31
2023-04-05T07:07:03.965Z,986.26
2023-04-05T07:08:04.043Z,986.17
2023-04-05T07:09:04.014Z,986.17
2023-04-05T07:10:03.955Z,986.20
2023-04-05T07:11:04.011Z,986.28
2023-04-05T07:12:04.059Z,986.28
2023-04-05T07:13:04.040Z,986.37
2023-04-05T07:14:04.017Z,986.20
2023-04-05T07:15:04.037Z,986.31
2023-04-05T07:16:04.213Z,986.42
2023-04-05T07:17:04.073Z,986.28
2023-04-05T07:18:04.150Z,986.14
2023-04-05T07:19:03.989Z,986.36
2023-04-05T07:20:04.012Z,986.28
2023-04-05T07:21:04.180Z,986.25
2023-04-05T07:22:03.993Z,986.30
2023-04-05T07:23:03.988Z,986.36
2023-04-05T07:24:03.984Z,986.28
2023-04-05T07:25:03.975Z,986.53
2023-04-05T07:26:04.125Z,986.42
2023-04-05T07:27:04.067Z,986.42
2023-04-05T07:28:04.045Z,986.42
2023-04-05T07:29:03.991Z,986.30
2023-04-05T07:30:04.053Z,986.44
2023-04-05T07:31:04.260Z,986.33
2023-04-05T07:32:04.101Z,986.38
2023-04-05T07:33:04.477Z,986.30
2023-04-05T07:34:04.023Z,986.47
2023-04-05T07:35:04.118Z,986.41
2023-04-05T07:36:04.110Z,986.41
2023-04-05T07:37:03.990Z,986.41
2023-04-05T07:38:04.060Z,986.49
2023-04-05T07:39:04.008Z,986.46
2023-04-05T07:40:03.976Z,986.41
2023-04-05T07:41:04.045Z,986.38
2023-04-05T07:42:04.070Z,986.55
2023-04-05T07:43:03.994Z,986.38
2023-04-05T07:44:04.030Z,986.46
2023-04-05T07:45:04.088Z,986.40
2023-04-05T07:46:04.204Z,986.46
2023-04-05T07:47:04.044Z,986.54
2023-04-05T07:48:04.140Z,986.49
2023-04-05T07:49:04.011Z,986.56
2023-04-05T07:50:04.042Z,986.54
2023-04-05T07:51:04.081Z,986.56
2023-04-05T07:52:04.023Z,986.61
2023-04-05T07:53:03.993Z,986.56
2023-04-05T07:54:04.097Z,986.61
2023-04-05T07:55:04.034Z,986.56
2023-04-05T07:56:04.037Z,986.64
2023-04-05T07:57:04.056Z,986.75
2023-04-05T07:58:04.015Z,986.75
2023-04-05T07:59:04.117Z,986.61
2023-04-05T08:00:04.084Z,986.72
2023-04-05T08:01:04.017Z,986.56
2023-04-05T08:02:36.424Z,986.72
2023-04-05T08:03:04.109Z,986.61
2023-04-05T08:04:04.106Z,986.72
2023-04-05T08:05:04.060Z,986.69
2023-04-05T08:06:04.036Z,986.74
2023-04-05T08:07:04.001Z,986.69
2023-04-05T08:08:04.040Z,986.72
2023-04-05T08:09:04.092Z,986.66
2023-04-05T08:10:04.084Z,986.69
2023-04-05T08:11:04.068Z,986.71
2023-04-05T08:12:04.091Z,986.77
2023-04-05T08:13:04.046Z,986.71
2023-04-05T08:14:04.076Z,986.85
2023-04-05T08:15:04.145Z,986.77
2023-04-05T08:16:04.138Z,986.68
2023-04-05T08:17:04.076Z,986.77
2023-04-05T08:18:04.183Z,986.74
2023-04-05T08:19:04.050Z,986.83
2023-04-05T08:20:04.079Z,986.80
2023-04-05T08:21:04.077Z,986.97
2023-04-05T08:22:04.077Z,986.86
2023-04-05T08:23:04.058Z,986.90
2023-04-05T08:24:04.144Z,986.84
2023-04-05T08:25:04.063Z,986.98
2023-04-05T08:26:04.085Z,986.82
2023-04-05T08:27:04.083Z,986.85
2023-04-05T08:28:04.041Z,986.79
2023-04-05T08:29:04.128Z,986.85
2023-04-05T08:30:04.111Z,986.83
2023-04-05T08:31:04.052Z,986.69
2023-04-05T08:32:04.206Z,986.80
2023-04-05T08:33:04.225Z,986.77
2023-04-05T08:34:04.072Z,987.00
2023-04-05T08:35:04.104Z,986.95
2023-04-05T08:36:04.166Z,986.81
2023-04-05T08:37:04.052Z,986.92
2023-04-05T08:38:04.076Z,986.75
2023-04-05T08:39:04.122Z,986.73
2023-04-05T08:40:04.047Z,986.70
2023-04-05T08:41:04.083Z,986.81
2023-04-05T08:42:04.149Z,986.84
2023-04-05T08:43:04.123Z,986.93
2023-04-05T08:44:04.089Z,986.79
2023-04-05T08:45:04.137Z,986.82
2023-04-05T08:46:04.253Z,986.73
2023-04-05T08:47:04.098Z,986.79
2023-04-05T08:48:04.151Z,986.73
2023-04-05T08:49:04.103Z,986.73
2023-04-05T08:50:04.124Z,986.85
2023-04-05T08:51:04.151Z,986.82
2023-04-05T08:52:04.109Z,986.71
2023-04-05T08:53:04.148Z,986.74
2023-04-05T08:54:04.142Z,986.68
2023-04-05T08:55:04.080Z,986.74
2023-04-05T08:56:04.106Z,986.49
2023-04-05T08:57:04.135Z,986.59
2023-04-05T08:58:04.100Z,986.54
2023-04-05T08:59:04.254Z,986.73
2023-04-05T09:00:04.155Z,986.51
2023-04-05T09:01:04.128Z,986.56
2023-04-05T09:02:04.110Z,986.53
2023-04-05T09:03:04.289Z,986.50
2023-04-05T09:04:04.077Z,986.44
2023-04-05T09:05:04.114Z,986.49
2023-04-05T09:06:04.137Z,986.44
2023-04-05T09:07:04.158Z,986.46
2023-04-05T09:08:04.109Z,986.51
2023-04-05T09:09:04.099Z,986.31
2023-04-05T09:10:04.099Z,986.54
2023-04-05T09:11:04.209Z,986.39
2023-04-05T09:12:04.158Z,986.48
2023-04-05T09:13:04.126Z,986.58
2023-04-05T09:14:04.130Z,986.51
2023-04-05T09:15:04.184Z,986.51
2023-04-05T09:16:04.106Z,986.64
2023-04-05T09:17:04.248Z,986.56
2023-04-05T09:18:23.609Z,986.56
2023-04-05T09:19:04.146Z,986.51
2023-04-05T09:20:04.117Z,986.75
2023-04-05T09:21:04.210Z,986.56
2023-04-05T09:22:04.089Z,986.67
2023-04-05T09:23:04.152Z,986.61
2023-04-05T09:24:04.225Z,986.73
2023-04-05T09:25:04.201Z,986.73
2023-04-05T09:26:04.147Z,986.81
2023-04-05T09:27:04.169Z,986.67
2023-04-05T09:28:04.141Z,986.64
2023-04-05T09:29:04.216Z,986.81
2023-04-05T09:30:04.202Z,986.76
2023-04-05T09:31:04.213Z,986.78
2023-04-05T09:32:04.218Z,986.84
2023-04-05T09:33:04.322Z,986.73
2023-04-05T09:34:04.192Z,986.73
2023-04-05T09:35:04.181Z,986.78
2023-04-05T09:36:04.231Z,986.75
2023-04-05T09:37:04.134Z,986.86
2023-04-05T09:38:04.130Z,986.80
2023-04-05T09:39:04.183Z,986.69
2023-04-05T09:40:04.340Z,986.77
2023-04-05T09:41:04.102Z,986.77
2023-04-05T09:42:04.154Z,986.91
2023-04-05T09:43:04.166Z,986.88
2023-04-05T09:44:04.227Z,986.88
2023-04-05T09:45:04.159Z,986.85
2023-04-05T09:46:04.229Z,986.85
2023-04-05T09:47:04.150Z,986.99
2023-04-05T09:48:04.223Z,986.93
2023-04-05T09:49:04.197Z,987.10
2023-04-05T09:50:04.133Z,987.01
2023-04-05T09:51:13.216Z,986.98
2023-04-05T09:52:04.150Z,987.12
2023-04-05T09:53:04.182Z,986.89
2023-04-05T09:54:04.210Z,987.01
2023-04-05T09:55:04.164Z,987.06
2023-04-05T09:56:04.150Z,987.06
2023-04-05T09:57:04.221Z,987.03
2023-04-05T09:58:04.199Z,987.26
2023-04-05T09:59:04.189Z,987.17
2023-04-05T10:00:04.207Z,987.31
2023-04-05T10:01:17.602Z,987.31
2023-04-05T10:02:04.482Z,987.31
2023-04-05T10:03:04.419Z,987.31
2023-04-05T10:04:04.382Z,987.28
2023-04-05T10:05:04.179Z,987.23
2023-04-05T10:06:04.228Z,987.34
2023-04-05T10:07:04.207Z,987.37
2023-04-05T10:08:04.152Z,987.31
2023-04-05T10:09:04.172Z,987.43
2023-04-05T10:10:04.176Z,987.45
2023-04-05T10:11:04.167Z,987.43
2023-04-05T10:12:04.258Z,987.45
2023-04-05T10:13:04.143Z,987.45
2023-04-05T10:14:04.199Z,987.51
2023-04-05T10:15:04.190Z,987.59
2023-04-05T10:16:04.301Z,987.48
2023-04-05T10:17:04.185Z,987.54
2023-04-05T10:18:04.362Z,987.56
2023-04-05T10:19:04.142Z,987.62
2023-04-05T10:20:04.195Z,987.65
2023-04-05T10:21:04.220Z,987.71
2023-04-05T10:22:04.225Z,987.57
2023-04-05T10:23:04.167Z,987.57
2023-04-05T10:24:04.201Z,987.71
2023-04-05T10:25:04.181Z,987.71
2023-04-05T10:26:04.199Z,987.71
2023-04-05T10:27:04.258Z,987.82
2023-04-05T10:28:04.215Z,987.65
2023-04-05T10:29:04.182Z,987.65
2023-04-05T10:30:04.315Z,987.74
2023-04-05T10:31:04.227Z,987.80
2023-04-05T10:32:04.353Z,987.60
2023-04-05T10:33:04.699Z,987.60
2023-04-05T10:34:04.297Z,987.62
2023-04-05T10:35:04.296Z,987.62
2023-04-05T10:36:04.315Z,987.68
2023-04-05T10:37:04.282Z,987.68
2023-04-05T10:38:04.350Z,987.65
2023-04-05T10:39:04.257Z,987.51
2023-04-05T10:40:04.275Z,987.71
2023-04-05T10:41:04.219Z,987.63
2023-04-05T10:42:04.259Z,987.71
2023-04-05T10:43:04.248Z,987.74
2023-04-05T10:44:23.016Z,987.74
2023-04-05T10:45:04.346Z,987.65
2023-04-05T10:46:04.415Z,987.54
2023-04-05T10:47:04.252Z,987.56
2023-04-05T10:48:04.327Z,987.53
2023-04-05T10:49:04.203Z,987.56
2023-04-05T10:50:04.204Z,987.82
2023-04-05T10:51:04.243Z,987.70
2023-04-05T10:52:04.831Z,987.76
2023-04-05T10:53:04.284Z,987.73
2023-04-05T10:54:04.251Z,987.56
2023-04-05T10:55:04.187Z,987.65
2023-04-05T10:56:04.368Z,987.59
2023-04-05T10:57:06.943Z,987.70
2023-04-05T10:58:04.261Z,987.73
2023-04-05T10:59:04.234Z,987.67
2023-04-05T11:00:04.359Z,987.65
2023-04-05T11:01:04.294Z,987.79
2023-04-05T11:02:04.262Z,987.73
2023-04-05T11:03:04.357Z,987.82
2023-04-05T11:04:04.338Z,987.76
2023-04-05T11:05:04.306Z,987.76
2023-04-05T11:06:04.247Z,987.76
2023-04-05T11:07:04.252Z,987.73
2023-04-05T11:08:04.255Z,987.70
2023-04-05T11:09:04.314Z,987.65
2023-04-05T11:10:04.262Z,987.76
2023-04-05T11:11:04.273Z,987.73
2023-04-05T11:12:04.277Z,987.79
2023-04-05T11:13:04.265Z,987.79
2023-04-05T11:14:04.288Z,987.65
2023-04-05T11:15:04.285Z,987.79
2023-04-05T11:16:04.244Z,987.65
2023-04-05T11:17:04.433Z,987.73
2023-04-05T11:18:04.435Z,987.59
2023-04-05T11:19:04.220Z,987.76
2023-04-05T11:20:04.298Z,987.73
2023-04-05T11:21:04.278Z,987.59
2023-04-05T11:22:04.271Z,987.59
2023-04-05T11:23:04.267Z,987.59
2023-04-05T11:24:04.294Z,987.50
2023-04-05T11:25:04.285Z,987.58
2023-04-05T11:26:04.275Z,987.41
2023-04-05T11:27:04.299Z,987.50
2023-04-05T11:28:04.218Z,987.52
2023-04-05T11:29:04.238Z,987.27
2023-04-05T11:30:04.293Z,987.58
2023-04-05T11:31:04.252Z,987.49
2023-04-05T11:32:04.557Z,987.43
2023-04-05T11:33:04.416Z,987.37
2023-04-05T11:34:04.307Z,987.49
2023-04-05T11:35:04.217Z,987.49
2023-04-05T11:36:04.459Z,987.43
2023-04-05T11:37:04.240Z,987.37
2023-04-05T11:38:04.270Z,987.29
2023-04-05T11:39:04.301Z,987.31
2023-04-05T11:40:06.818Z,987.45
2023-04-05T11:41:04.255Z,987.40
2023-04-05T11:42:04.357Z,987.42
2023-04-05T11:43:04.266Z,987.37
2023-04-05T11:44:04.228Z,987.31
2023-04-05T11:45:04.278Z,987.45
2023-04-05T11:46:04.358Z,987.31
2023-04-05T11:47:04.238Z,987.51
2023-04-05T11:48:04.352Z,987.40
2023-04-05T11:49:04.289Z,987.51
2023-04-05T11:50:04.256Z,987.45
2023-04-05T11:51:04.314Z,987.40
2023-04-05T11:52:04.264Z,987.45
2023-04-05T11:53:04.260Z,987.29
2023-04-05T11:54:04.274Z,987.17
2023-04-05T11:55:04.242Z,987.32
2023-04-05T11:56:04.236Z,987.38
2023-04-05T11:57:04.337Z,987.44
2023-04-05T11:58:04.242Z,987.44
2023-04-05T11:59:04.304Z,987.50
2023-04-05T12:00:04.284Z,987.41
2023-04-05T12:01:04.271Z,987.47
2023-04-05T12:02:04.320Z,987.44
2023-04-05T12:03:04.412Z,987.36
2023-04-05T12:04:04.439Z,987.42
2023-04-05T12:05:04.465Z,987.45
2023-04-05T12:06:04.326Z,987.59
2023-04-05T12:07:04.315Z,987.51
2023-04-05T12:08:04.332Z,987.51
2023-04-05T12:09:04.303Z,987.37
2023-04-05T12:10:04.301Z,987.43
2023-04-05T12:11:04.271Z,987.40
2023-04-05T12:12:04.314Z,987.38
2023-04-05T12:13:04.289Z,987.41
2023-04-05T12:14:04.276Z,987.41
2023-04-05T12:15:04.317Z,987.35
2023-04-05T12:16:04.410Z,987.52
2023-04-05T12:17:04.290Z,987.38
2023-04-05T12:18:04.438Z,987.41
2023-04-05T12:19:04.299Z,987.30
2023-04-05T12:20:04.368Z,987.33
2023-04-05T12:21:08.131Z,987.53
2023-04-05T12:22:04.509Z,987.30
2023-04-05T12:23:04.338Z,987.16
2023-04-05T12:24:04.322Z,987.36
2023-04-05T12:25:04.279Z,987.42
2023-04-05T12:26:04.308Z,987.42
2023-04-05T12:27:04.333Z,987.33
2023-04-05T12:28:04.344Z,987.31
2023-04-05T12:29:04.334Z,987.28
2023-04-05T12:30:04.412Z,987.25
2023-04-05T12:31:04.304Z,987.25
2023-04-05T12:32:04.471Z,987.28
2023-04-05T12:33:04.480Z,987.28
2023-04-05T12:34:04.298Z,987.17
2023-04-05T12:35:04.318Z,987.28
2023-04-05T12:36:04.443Z,987.19
2023-04-05T12:37:04.336Z,987.31